createdAt,value
2022-09-11T00:01:43.283Z,34.90
2022-09-11T00:04:10.895Z,34.90
2022-09-11T00:06:41.448Z,35.57
2022-09-11T00:09:10.995Z,35.10
2022-09-11T00:11:42.786Z,35.20
2022-09-11T00:14:13.811Z,33.40
2022-09-11T00:16:45.558Z,34.63
2022-09-11T00:19:21.832Z,34.70
2022-09-11T00:21:51.878Z,36.03
2022-09-11T00:24:19.778Z,35.53
2022-09-11T00:26:47.840Z,35.10
2022-09-11T00:29:14.778Z,36.80
2022-09-11T00:31:44.302Z,38.90
2022-09-11T00:34:13.337Z,37.30
2022-09-11T00:36:41.659Z,37.07
2022-09-11T00:39:10.742Z,35.47
2022-09-11T00:41:42.146Z,39.17
2022-09-11T00:44:28.991Z,36.50
2022-09-11T00:47:01.702Z,35.37
2022-09-11T00:49:38.599Z,35.27
2022-09-11T00:52:28.145Z,38.57
2022-09-11T00:55:14.581Z,38.30
2022-09-11T00:58:00.634Z,36.73
2022-09-11T01:00:30.249Z,36.10
2022-09-11T01:02:58.213Z,36.00
2022-09-11T01:05:28.640Z,36.83
2022-09-11T01:07:56.712Z,36.00
2022-09-11T01:10:58.272Z,36.00
2022-09-11T01:13:33.871Z,34.77
2022-09-11T01:16:17.223Z,36.17
2022-09-11T01:18:58.334Z,36.50
2022-09-11T01:22:28.160Z,37.20
2022-09-11T01:25:47.297Z,35.60
2022-09-11T01:28:23.666Z,38.37
2022-09-11T01:31:07.014Z,37.80
2022-09-11T01:33:46.389Z,38.60
2022-09-11T01:36:21.553Z,40.43
2022-09-11T01:39:04.507Z,37.77
2022-09-11T01:41:56.746Z,37.10
2022-09-11T01:44:33.137Z,39.10
2022-09-11T01:47:02.568Z,36.90
2022-09-11T01:49:41.804Z,37.20
2022-09-11T01:52:15.505Z,38.20
2022-09-11T01:54:51.268Z,37.37
2022-09-11T01:57:36.975Z,37.83
2022-09-11T02:00:10.941Z,37.87
2022-09-11T02:02:47.326Z,39.33
2022-09-11T02:05:23.084Z,39.83
2022-09-11T02:08:02.552Z,37.40
2022-09-11T02:10:45.465Z,35.83
2022-09-11T02:13:41.436Z,36.80
2022-09-11T02:17:18.430Z,36.13
2022-09-11T02:19:45.615Z,35.30
2022-09-11T02:22:12.810Z,36.10
2022-09-11T02:24:39.910Z,34.60
2022-09-11T02:27:16.967Z,33.77
2022-09-11T02:29:44.039Z,34.33
2022-09-11T02:32:11.619Z,36.03
2022-09-11T02:34:42.259Z,35.97
2022-09-11T02:37:41.084Z,33.83
2022-09-11T02:40:42.360Z,33.60
2022-09-11T02:44:07.961Z,34.50
2022-09-11T02:47:00.673Z,35.50
2022-09-11T02:50:00.165Z,35.00
2022-09-11T02:53:14.817Z,36.63
2022-09-11T02:56:32.300Z,35.27
2022-09-11T02:59:30.530Z,32.80
2022-09-11T03:01:59.718Z,33.27
2022-09-11T03:04:29.547Z,27.33
2022-09-11T03:06:58.718Z,27.03
2022-09-11T03:09:25.869Z,26.43
2022-09-11T03:11:53.045Z,26.30
2022-09-11T03:14:20.248Z,28.10
2022-09-11T03:16:51.773Z,26.57
2022-09-11T03:19:18.744Z,27.50
2022-09-11T03:21:45.764Z,28.40
2022-09-11T03:24:17.098Z,28.43
2022-09-11T03:26:44.156Z,27.70
2022-09-11T03:29:13.990Z,27.63
2022-09-11T03:31:40.961Z,27.27
2022-09-11T03:34:11.067Z,25.17
2022-09-11T03:36:37.978Z,25.13
2022-09-11T03:39:07.282Z,25.80
2022-09-11T03:41:36.303Z,25.90
2022-09-11T03:44:03.445Z,25.30
2022-09-11T03:46:31.189Z,25.37
2022-09-11T03:48:58.733Z,26.97
2022-09-11T03:51:26.508Z,24.93
2022-09-11T03:53:54.086Z,26.83
2022-09-11T03:56:21.145Z,25.50
2022-09-11T03:58:48.643Z,28.50
2022-09-11T04:01:19.456Z,29.80
2022-09-11T04:03:46.450Z,27.90
2022-09-11T04:06:14.027Z,29.30
2022-09-11T04:08:41.675Z,30.70
2022-09-11T04:11:11.617Z,30.17
2022-09-11T04:13:42.140Z,31.23
2022-09-11T04:16:15.011Z,30.47
2022-09-11T04:18:46.384Z,34.70
2022-09-11T04:21:16.923Z,36.10
2022-09-11T04:23:45.521Z,36.43
2022-09-11T04:26:18.862Z,35.60
2022-09-11T04:28:46.430Z,35.10
2022-09-11T04:31:16.131Z,36.73
2022-09-11T04:33:44.240Z,36.73
2022-09-11T04:36:15.201Z,34.10
2022-09-11T04:38:42.028Z,37.83
2022-09-11T04:41:09.760Z,34.77
2022-09-11T04:43:39.127Z,37.30
2022-09-11T04:46:16.990Z,35.53
2022-09-11T04:48:52.479Z,34.47
2022-09-11T04:51:32.204Z,35.90
2022-09-11T04:54:04.700Z,35.60
2022-09-11T04:56:37.752Z,36.27
2022-09-11T04:59:20.449Z,36.37
2022-09-11T05:01:49.549Z,35.20
2022-09-11T05:04:26.732Z,36.23
2022-09-11T05:06:56.683Z,34.70
2022-09-11T05:09:24.300Z,35.17
2022-09-11T05:11:51.870Z,34.90
2022-09-11T05:14:18.698Z,34.63
2022-09-11T05:16:48.171Z,33.23
2022-09-11T05:19:17.445Z,34.30
2022-09-11T05:21:48.262Z,32.17
2022-09-11T05:24:15.227Z,35.77
2022-09-11T05:26:42.456Z,35.93
2022-09-11T05:29:16.874Z,33.70
2022-09-11T05:31:44.090Z,34.77
2022-09-11T05:34:11.009Z,32.90
2022-09-11T05:36:38.088Z,32.77
2022-09-11T05:39:07.837Z,33.60
2022-09-11T05:44:19.285Z,30.83
2022-09-11T05:46:46.233Z,30.00
2022-09-11T05:49:13.353Z,31.10
2022-09-11T05:51:41.658Z,28.10
2022-09-11T05:54:08.913Z,29.03
2022-09-11T05:56:38.238Z,28.87
2022-09-11T05:59:14.228Z,26.70
2022-09-11T06:01:43.006Z,29.27
2022-09-11T06:04:12.469Z,27.63
2022-09-11T06:06:39.828Z,27.93
2022-09-11T06:09:10.227Z,27.43
2022-09-11T06:11:37.135Z,29.43
2022-09-11T06:14:09.079Z,28.53
2022-09-11T06:16:36.286Z,28.00
2022-09-11T06:19:05.671Z,26.70
2022-09-11T06:21:32.519Z,25.10
2022-09-11T06:23:59.460Z,27.03
2022-09-11T06:26:29.588Z,25.67
2022-09-11T06:28:57.378Z,26.03
2022-09-11T06:31:30.062Z,24.47
2022-09-11T06:33:59.706Z,24.57
2022-09-11T06:36:27.764Z,25.50
2022-09-11T06:38:58.312Z,26.63
2022-09-11T06:41:27.111Z,27.47
2022-09-11T06:43:54.252Z,25.37
2022-09-11T06:46:24.286Z,25.93
2022-09-11T06:48:55.022Z,26.30
2022-09-11T06:51:24.030Z,24.53
2022-09-11T06:54:02.218Z,24.60
2022-09-11T06:56:32.429Z,24.20
2022-09-11T06:59:01.883Z,23.57
2022-09-11T07:01:32.027Z,22.03
2022-09-11T07:03:59.161Z,20.30
2022-09-11T07:06:30.356Z,20.57
2022-09-11T07:09:03.783Z,20.30
2022-09-11T07:11:36.638Z,19.37
2022-09-11T07:14:06.316Z,19.03
2022-09-11T07:16:34.757Z,19.63
2022-09-11T07:19:04.774Z,19.00
2022-09-11T07:21:32.949Z,18.40
2022-09-11T07:24:00.468Z,19.27
2022-09-11T07:26:30.012Z,19.00
2022-09-11T07:28:59.212Z,18.10
2022-09-11T07:31:33.291Z,18.23
2022-09-11T07:34:03.012Z,17.83
2022-09-11T07:36:33.566Z,18.03
2022-09-11T07:39:03.929Z,16.13
2022-09-11T07:41:31.656Z,15.77
2022-09-11T07:44:00.436Z,14.47
2022-09-11T07:46:27.652Z,12.83
2022-09-11T07:49:01.397Z,12.40
2022-09-11T07:51:28.266Z,13.40
2022-09-11T07:53:59.461Z,12.63
2022-09-11T07:56:31.204Z,12.37
2022-09-11T07:59:07.061Z,12.20
2022-09-11T08:01:34.454Z,10.80
2022-09-11T08:04:05.899Z,10.70
2022-09-11T08:06:36.101Z,10.50
2022-09-11T08:09:11.041Z,8.37
2022-09-11T08:11:41.876Z,8.90
2022-09-11T08:14:11.710Z,8.80
2022-09-11T08:16:38.826Z,9.10
2022-09-11T08:19:09.591Z,9.80
2022-09-11T08:21:36.449Z,8.33
2022-09-11T08:24:07.247Z,8.87
2022-09-11T08:26:37.070Z,9.70
2022-09-11T08:29:06.820Z,7.80
2022-09-11T08:31:35.089Z,9.17
2022-09-11T08:34:05.080Z,7.87
2022-09-11T08:36:32.005Z,8.10
2022-09-11T08:39:02.757Z,7.33
2022-09-11T08:41:48.894Z,7.97
2022-09-11T08:44:28.472Z,7.57
2022-09-11T08:47:14.477Z,7.40
2022-09-11T08:49:51.524Z,7.07
2022-09-11T08:52:18.660Z,7.40
2022-09-11T08:54:48.118Z,8.97
2022-09-11T08:57:32.100Z,8.43
2022-09-11T09:00:35.874Z,7.27
2022-09-11T09:03:41.897Z,9.10
2022-09-11T09:06:26.327Z,7.70
2022-09-11T09:09:29.788Z,8.83
2022-09-11T09:12:43.356Z,10.40
2022-09-11T09:15:36.970Z,10.93
2022-09-11T09:18:16.783Z,9.27
2022-09-11T09:21:03.797Z,9.10
2022-09-11T09:23:46.393Z,9.60
2022-09-11T09:26:19.161Z,8.77
2022-09-11T09:28:50.721Z,7.73
2022-09-11T09:31:28.918Z,7.60
2022-09-11T09:34:09.750Z,7.90
2022-09-11T09:36:47.158Z,7.80
2022-09-11T09:39:17.022Z,7.77
2022-09-11T09:42:17.147Z,7.63
2022-09-11T09:45:19.215Z,7.43
2022-09-11T09:47:49.284Z,6.67
2022-09-11T09:50:43.929Z,7.37
2022-09-11T09:53:13.720Z,7.00
2022-09-11T09:55:41.282Z,7.03
2022-09-11T09:58:08.370Z,6.57
2022-09-11T10:00:38.164Z,6.00
2022-09-11T10:03:20.079Z,6.00
2022-09-11T10:05:54.805Z,5.53
2022-09-11T10:08:35.628Z,4.80
2022-09-11T10:11:04.116Z,5.63
2022-09-11T10:13:41.710Z,5.50
2022-09-11T10:16:32.763Z,5.40
2022-09-11T10:19:02.354Z,5.00
2022-09-11T10:21:35.908Z,5.00
2022-09-11T10:24:23.399Z,4.73
2022-09-11T10:26:58.348Z,5.13
2022-09-11T10:29:32.242Z,4.40
2022-09-11T10:32:03.654Z,4.70
2022-09-11T10:34:42.077Z,3.30
2022-09-11T10:37:34.317Z,2.77
2022-09-11T10:40:22.073Z,2.87
2022-09-11T10:42:52.414Z,2.33
2022-09-11T10:45:22.869Z,2.57
2022-09-11T10:47:49.778Z,2.67
2022-09-11T10:50:17.350Z,2.70
2022-09-11T10:53:09.155Z,2.73
2022-09-11T10:55:48.809Z,2.60
2022-09-11T10:58:24.434Z,2.73
2022-09-11T11:00:56.742Z,1.93
2022-09-11T11:03:30.531Z,2.10
2022-09-11T11:06:44.388Z,2.03
2022-09-11T11:09:39.082Z,1.67
2022-09-11T11:12:32.651Z,2.33
2022-09-11T11:15:40.200Z,2.40
2022-09-11T11:18:16.268Z,3.03
2022-09-11T11:21:16.741Z,2.23
2022-09-11T11:24:07.412Z,3.03
2022-09-11T11:26:59.677Z,2.30
2022-09-11T11:29:50.791Z,1.90
2022-09-11T11:32:51.728Z,2.17
2022-09-11T11:35:30.340Z,2.00
2022-09-11T11:38:15.249Z,2.00
2022-09-11T11:40:53.508Z,1.73
2022-09-11T11:43:31.539Z,2.30
2022-09-11T11:46:15.788Z,2.20
2022-09-11T11:48:53.256Z,1.67
2022-09-11T11:51:27.630Z,2.33
2022-09-11T11:54:17.395Z,2.07
2022-09-11T11:57:08.099Z,1.80
2022-09-11T11:59:53.861Z,2.23
2022-09-11T12:02:45.552Z,2.00
2022-09-11T12:05:24.244Z,1.40
2022-09-11T12:07:56.484Z,1.67
2022-09-11T12:10:38.654Z,2.13
2022-09-11T12:13:34.638Z,1.70
2022-09-11T12:16:19.969Z,2.37
2022-09-11T12:19:12.468Z,2.10
2022-09-11T12:22:12.094Z,1.87
2022-09-11T12:24:50.595Z,1.30
2022-09-11T12:27:37.978Z,1.40
2022-09-11T12:30:21.645Z,1.17
2022-09-11T12:33:02.733Z,1.27
2022-09-11T12:35:32.553Z,1.10
2022-09-11T12:38:13.370Z,1.80
2022-09-11T12:41:07.508Z,1.40
2022-09-11T12:43:37.388Z,1.10
2022-09-11T12:46:13.566Z,1.30
2022-09-11T12:49:18.348Z,1.00
2022-09-11T12:51:56.864Z,0.90
2022-09-11T12:54:27.094Z,1.63
2022-09-11T12:57:03.876Z,1.20
2022-09-11T12:59:38.581Z,1.33
2022-09-11T13:02:38.891Z,1.00
2022-09-11T13:05:36.392Z,1.10
2022-09-11T13:08:16.662Z,1.10
2022-09-11T13:10:44.209Z,1.27
2022-09-11T13:13:38.146Z,0.90
2022-09-11T13:16:25.799Z,0.90
2022-09-11T13:19:21.058Z,0.83
2022-09-11T13:21:56.732Z,1.20
2022-09-11T13:24:34.824Z,1.07
2022-09-11T13:27:13.141Z,0.80
2022-09-11T13:29:40.962Z,0.90
2022-09-11T13:32:19.868Z,0.80
2022-09-11T13:34:56.412Z,0.90
2022-09-11T13:37:38.398Z,0.87
2022-09-11T13:40:08.533Z,0.80
2022-09-11T13:42:36.419Z,1.00
2022-09-11T13:45:07.520Z,0.97
2022-09-11T13:47:42.086Z,1.10
2022-09-11T13:50:14.674Z,1.13
2022-09-11T13:52:46.777Z,1.50
2022-09-11T13:55:26.833Z,1.03
2022-09-11T13:58:04.528Z,1.17
2022-09-11T14:00:45.974Z,0.90
2022-09-11T14:03:33.539Z,0.87
2022-09-11T14:06:06.708Z,0.97
2022-09-11T14:08:40.268Z,1.30
2022-09-11T14:11:23.642Z,1.00
2022-09-11T14:14:05.970Z,2.00
2022-09-11T14:16:37.585Z,2.00
2022-09-11T14:19:14.284Z,1.50
2022-09-11T14:21:45.488Z,1.40
2022-09-11T14:24:36.411Z,1.20
2022-09-11T14:27:35.120Z,1.37
2022-09-11T14:30:23.207Z,1.10
2022-09-11T14:33:26.227Z,1.60
2022-09-11T14:36:07.950Z,1.00
2022-09-11T14:38:35.198Z,1.00
2022-09-11T14:41:07.194Z,0.90
2022-09-11T14:43:40.505Z,1.30
2022-09-11T14:46:12.436Z,1.47
2022-09-11T14:48:44.064Z,1.23
2022-09-11T14:51:13.608Z,1.13
2022-09-11T14:53:43.388Z,1.40
2022-09-11T14:56:13.839Z,1.70
2022-09-11T14:58:40.725Z,1.50
2022-09-11T15:01:09.222Z,1.80
2022-09-11T15:03:41.826Z,1.90
2022-09-11T15:06:17.816Z,1.40
2022-09-11T15:08:45.976Z,1.50
2022-09-11T15:11:13.548Z,1.83
2022-09-11T15:14:10.883Z,1.40
2022-09-11T15:16:32.101Z,1.40
2022-09-11T15:18:58.998Z,2.10
2022-09-11T15:21:26.157Z,1.70
2022-09-11T15:23:54.158Z,1.60
2022-09-11T15:26:21.321Z,1.80
2022-09-11T15:28:53.345Z,2.10
2022-09-11T15:31:20.543Z,2.00
2022-09-11T15:33:53.817Z,1.93
2022-09-11T15:36:26.442Z,2.60
2022-09-11T15:38:54.525Z,1.40
2022-09-11T15:41:25.403Z,2.20
2022-09-11T15:43:52.350Z,1.70
2022-09-11T15:46:21.105Z,1.70
2022-09-11T15:48:48.900Z,1.50
2022-09-11T15:51:19.299Z,1.93
2022-09-11T15:53:48.819Z,2.00
2022-09-11T15:56:25.700Z,1.80
2022-09-11T15:58:58.973Z,2.13
2022-09-11T16:01:32.418Z,2.50
2022-09-11T16:04:07.292Z,2.50
2022-09-11T16:06:40.165Z,5.77
2022-09-11T16:09:17.362Z,2.00
2022-09-11T16:11:44.807Z,2.33
2022-09-11T16:14:33.094Z,1.70
2022-09-11T16:17:02.431Z,2.00
2022-09-11T16:19:32.206Z,1.70
2022-09-11T16:22:04.232Z,2.27
2022-09-11T16:24:37.702Z,1.70
2022-09-11T16:27:10.276Z,2.20
2022-09-11T16:30:15.630Z,1.90
2022-09-11T16:32:37.458Z,1.80
2022-09-11T16:35:06.018Z,2.00
2022-09-11T16:37:34.182Z,1.80
2022-09-11T16:40:02.912Z,1.97
2022-09-11T16:42:30.243Z,2.00
2022-09-11T16:44:57.331Z,1.97
2022-09-11T16:47:24.432Z,1.97
2022-09-11T16:50:08.198Z,2.67
2022-09-11T16:52:39.313Z,1.90
2022-09-11T16:55:11.299Z,2.17
2022-09-11T16:57:38.865Z,1.60
2022-09-11T17:00:12.792Z,2.10
2022-09-11T17:02:39.979Z,2.13
2022-09-11T17:05:08.367Z,2.03
2022-09-11T17:07:38.450Z,1.77
2022-09-11T17:10:05.827Z,1.80
2022-09-11T17:12:32.869Z,1.77
2022-09-11T17:14:59.898Z,2.30
2022-09-11T17:17:26.956Z,2.80
2022-09-11T17:19:54.615Z,2.80
2022-09-11T17:22:21.425Z,2.90
2022-09-11T17:24:48.335Z,2.93
2022-09-11T17:27:15.400Z,3.23
2022-09-11T17:29:44.581Z,3.10
2022-09-11T17:32:27.694Z,3.00
2022-09-11T17:34:55.577Z,3.30
2022-09-11T17:37:25.896Z,3.43
2022-09-11T17:39:52.816Z,3.23
2022-09-11T17:42:27.463Z,3.50
2022-09-11T17:44:54.346Z,3.17
2022-09-11T17:47:21.642Z,3.03
2022-09-11T17:49:50.290Z,3.40
2022-09-11T17:52:21.585Z,3.90
2022-09-11T17:54:49.182Z,3.60
2022-09-11T17:57:16.168Z,2.97
2022-09-11T17:59:45.480Z,3.80
2022-09-11T18:02:16.710Z,4.30
2022-09-11T18:04:44.378Z,5.57
2022-09-11T18:07:11.708Z,3.50
2022-09-11T18:09:41.262Z,4.90
2022-09-11T18:12:11.428Z,5.47
2022-09-11T18:14:39.799Z,5.40
2022-09-11T18:17:10.860Z,4.07
2022-09-11T18:19:41.301Z,4.33
2022-09-11T18:22:09.785Z,5.10
2022-09-11T18:24:39.856Z,4.87
2022-09-11T18:27:10.581Z,5.00
2022-09-11T18:29:40.534Z,5.30
2022-09-11T18:32:09.889Z,5.17
2022-09-11T18:34:39.137Z,5.60
2022-09-11T18:37:08.648Z,6.10
2022-09-11T18:39:38.372Z,5.97
2022-09-11T18:42:07.513Z,6.97
2022-09-11T18:44:34.812Z,6.10
2022-09-11T18:47:01.772Z,7.47
2022-09-11T18:49:32.396Z,6.33
2022-09-11T18:52:04.770Z,5.80
2022-09-11T18:54:34.783Z,5.70
2022-09-11T18:57:03.560Z,5.57
2022-09-11T18:59:30.686Z,5.37
2022-09-11T19:02:00.087Z,4.80
2022-09-11T19:04:28.746Z,5.13
2022-09-11T19:07:00.298Z,4.90
2022-09-11T19:09:30.982Z,4.80
2022-09-11T19:12:02.271Z,4.10
2022-09-11T19:14:30.563Z,4.37
2022-09-11T19:17:00.424Z,4.43
2022-09-11T19:19:30.071Z,4.37
2022-09-11T19:22:00.312Z,3.93
2022-09-11T19:24:30.170Z,4.27
2022-09-11T19:27:00.197Z,3.83
2022-09-11T19:29:31.036Z,3.93
2022-09-11T19:31:57.995Z,4.30
2022-09-11T19:34:25.017Z,4.07
2022-09-11T19:36:54.200Z,3.90
2022-09-11T19:39:21.814Z,3.83
2022-09-11T19:41:51.956Z,4.10
2022-09-11T19:44:20.003Z,3.80
2022-09-11T19:46:49.896Z,3.80
2022-09-11T19:49:16.956Z,4.77
2022-09-11T19:51:46.514Z,4.60
2022-09-11T19:54:14.498Z,7.00
2022-09-11T19:56:42.523Z,5.53
2022-09-11T19:59:09.931Z,5.70
2022-09-11T20:01:37.441Z,4.80
2022-09-11T20:04:05.066Z,5.93
2022-09-11T20:06:38.199Z,5.00
2022-09-11T20:09:29.964Z,6.47
2022-09-11T20:12:00.480Z,4.60
2022-09-11T20:14:30.189Z,4.70
2022-09-11T20:16:57.126Z,4.60
2022-09-11T20:19:24.285Z,4.10
2022-09-11T20:21:51.210Z,4.00
2022-09-11T20:24:19.921Z,4.10
2022-09-11T20:26:46.807Z,4.30
2022-09-11T20:29:19.900Z,4.37
2022-09-11T20:31:51.150Z,3.90
2022-09-11T20:34:19.363Z,4.00
2022-09-11T20:36:47.380Z,3.80
2022-09-11T20:39:17.477Z,4.60
2022-09-11T20:41:44.732Z,4.93
2022-09-11T20:44:14.261Z,4.77
2022-09-11T20:46:43.619Z,5.50
2022-09-11T20:49:13.818Z,5.10
2022-09-11T20:51:40.835Z,5.17
2022-09-11T20:54:08.233Z,5.20
2022-09-11T20:56:35.635Z,5.00
2022-09-11T20:59:02.707Z,4.33
2022-09-11T21:01:36.812Z,4.10
2022-09-11T21:04:05.588Z,4.90
2022-09-11T21:06:35.637Z,5.10
2022-09-11T21:09:12.376Z,5.00
2022-09-11T21:11:42.142Z,5.40
2022-09-11T21:14:19.631Z,4.80
2022-09-11T21:16:48.958Z,5.50
2022-09-11T21:19:19.337Z,4.97
2022-09-11T21:21:46.285Z,5.40
2022-09-11T21:24:14.214Z,5.60
2022-09-11T21:26:46.836Z,5.67
2022-09-11T21:29:15.889Z,5.73
2022-09-11T21:31:42.905Z,5.93
2022-09-11T21:34:10.549Z,4.90
2022-09-11T21:36:39.978Z,5.50
2022-09-11T21:39:07.031Z,5.50
2022-09-11T21:41:34.303Z,5.80
2022-09-11T21:44:04.574Z,6.93
2022-09-11T21:46:34.209Z,6.03
2022-09-11T21:49:01.909Z,7.13
2022-09-11T21:51:29.045Z,6.10
2022-09-11T21:53:59.459Z,6.10
2022-09-11T21:56:34.073Z,5.57
2022-09-11T21:59:01.987Z,5.30
2022-09-11T22:01:31.653Z,5.80
2022-09-11T22:04:00.481Z,5.30
2022-09-11T22:06:29.179Z,5.47
2022-09-11T22:08:56.563Z,4.80
2022-09-11T22:11:23.949Z,4.90
2022-09-11T22:13:52.897Z,4.73
2022-09-11T22:16:20.683Z,4.87
2022-09-11T22:18:53.123Z,5.13
2022-09-11T22:21:20.232Z,5.97
2022-09-11T22:23:47.745Z,5.57
2022-09-11T22:26:19.843Z,5.17
2022-09-11T22:28:47.461Z,5.30
2022-09-11T22:31:20.292Z,4.80
2022-09-11T22:33:50.016Z,6.20
2022-09-11T22:36:26.213Z,4.37
2022-09-11T22:38:56.270Z,4.40
2022-09-11T22:41:23.775Z,6.03
2022-09-11T22:43:50.915Z,4.60
2022-09-11T22:46:20.896Z,4.90
2022-09-11T22:48:48.342Z,4.50
2022-09-11T22:51:15.810Z,5.17
2022-09-11T22:53:43.290Z,4.73
2022-09-11T22:56:14.275Z,4.70
2022-09-11T22:58:41.908Z,4.77
2022-09-11T23:01:12.352Z,4.93
2022-09-11T23:03:41.882Z,22.80
2022-09-11T23:06:32.675Z,11.97
2022-09-11T23:09:00.693Z,8.07
2022-09-11T23:11:28.932Z,6.80
2022-09-11T23:13:58.346Z,6.23
2022-09-11T23:16:30.558Z,5.00
2022-09-11T23:19:01.358Z,6.80
2022-09-11T23:21:30.438Z,5.07
2022-09-11T23:24:12.935Z,5.60
2022-09-11T23:26:40.386Z,5.00
2022-09-11T23:29:10.027Z,4.80
2022-09-11T23:31:36.989Z,4.77
2022-09-11T23:34:07.517Z,5.07
2022-09-11T23:36:36.393Z,4.90
2022-09-11T23:39:03.967Z,5.10
2022-09-11T23:41:33.445Z,5.13
2022-09-11T23:44:13.786Z,5.40
2022-09-11T23:46:40.751Z,4.40
2022-09-11T23:49:07.726Z,5.23
2022-09-11T23:51:37.919Z,5.63
2022-09-11T23:54:07.730Z,5.33
2022-09-11T23:56:35.408Z,5.20
2022-09-11T23:59:02.454Z,5.97
